Time;durP1;ratioP1;P1;durP2;ratioP2;P2;SDS_P1;SDS_P2;PMS_P1;PMS_P2;Temp;Humidity;BMP_temperature;BMP_pressure;BME280_temperature;BME280_humidity;BME280_pressure;Samples;Min_cycle;Max_cycle;Signal;HPM_P1;HPM_P2
2023/06/18 00:00:12;;;;;;;;;;;;;;;20.20;66.94;101242.19;13055528;22;19997;-79
2023/06/18 00:05:14;;;;;;;;;;;;;;;20.26;67.88;101233.66;13028718;22;20013;-79
2023/06/18 00:10:17;;;;;;;;;;;;;;;20.25;67.64;101236.44;13027043;22;20282;-79
2023/06/18 00:15:19;;;;;;;;;;;;;;;20.11;68.97;101243.03;13054085;22;20251;-79
2023/06/18 00:20:21;;;;;;;;;;;;;;;20.20;68.08;101236.84;13055115;22;19986;-79
2023/06/18 00:25:24;;;;;;;;;;;;;;;19.97;69.06;101231.84;13027186;22;19926;-79
2023/06/18 00:30:26;;;;;;;;;;;;;;;19.93;69.25;101226.94;13027809;22;20271;-79
2023/06/18 00:35:28;;;;;;;;;;;;;;;19.91;69.64;101235.03;13054061;22;19918;-79
2023/06/18 00:40:31;;;;;;;;;;;;;;;19.75;71.13;101240.03;13027189;22;20021;-79
2023/06/18 00:45:34;;;;;;;;;;;;;;;19.78;70.91;101234.44;13054485;22;19998;-79
2023/06/18 00:50:37;;;;;;;;;;;;;;;19.57;72.18;101229.19;13052662;22;19994;-79
2023/06/18 00:55:39;;;;;;;;;;;;;;;19.46;72.89;101222.19;13053553;22;20001;-79
2023/06/18 01:00:43;;;;;;;;;;;;;;;19.18;74.07;101224.63;13054350;22;19982;-79
2023/06/18 01:05:45;;;;;;;;;;;;;;;19.13;74.49;101213.53;13053662;22;19954;-79
2023/06/18 01:10:47;;;;;;;;;;;;;;;19.06;74.82;101213.28;13027120;22;19989;-79
2023/06/18 01:15:50;;;;;;;;;;;;;;;18.90;75.93;101213.75;13053182;22;19997;-79
2023/06/18 01:20:55;;;;;;;;;;;;;;;18.89;76.88;101208.56;13025606;22;19972;-79
2023/06/18 01:25:59;;;;;;;;;;;;;;;18.78;77.50;101205.94;13026035;22;19958;-79
2023/06/18 01:31:01;;;;;;;;;;;;;;;18.61;78.57;101210.91;13053666;22;19919;-79
2023/06/18 01:36:04;;;;;;;;;;;;;;;18.62;79.37;101211.75;13052907;22;19998;-79
2023/06/18 01:41:13;;;;;;;;;;;;;;;18.41;80.83;101214.38;13025501;22;20128;-78
2023/06/18 01:46:16;;;;;;;;;;;;;;;18.49;81.16;101207.50;13025978;22;19918;-79
2023/06/18 01:51:19;;;;;;;;;;;;;;;18.54;81.04;101215.88;13026467;22;19919;-78
2023/06/18 01:56:23;;;;;;;;;;;;;;;18.33;82.03;101209.75;13025221;22;20370;-79
2023/06/18 02:01:27;;;;;;;;;;;;;;;18.36;82.65;101204.19;13025863;22;20363;-78
2023/06/18 02:06:30;;;;;;;;;;;;;;;18.32;81.61;101206.22;13052800;22;19919;-79
2023/06/18 02:11:32;;;;;;;;;;;;;;;18.04;84.38;101209.50;13052935;22;19985;-78
2023/06/18 02:16:34;;;;;;;;;;;;;;;18.05;84.88;101201.41;13053208;22;19919;-79
2023/06/18 02:21:37;;;;;;;;;;;;;;;17.97;86.29;101193.25;13052404;22;19958;-79
2023/06/18 02:26:39;;;;;;;;;;;;;;;17.89;87.89;101198.38;13052019;22;19990;-79
2023/06/18 02:31:41;;;;;;;;;;;;;;;17.90;86.80;101198.22;13025367;22;19919;-79
2023/06/18 02:36:44;;;;;;;;;;;;;;;17.76;87.89;101191.38;13055380;22;19981;-79
2023/06/18 02:41:46;;;;;;;;;;;;;;;17.76;87.53;101182.59;13056778;22;20010;-79
2023/06/18 02:46:48;;;;;;;;;;;;;;;17.87;87.11;101177.31;13055817;22;20336;-78
2023/06/18 02:51:51;;;;;;;;;;;;;;;17.57;88.49;101176.16;13057142;22;19969;-78
2023/06/18 02:56:53;;;;;;;;;;;;;;;17.48;89.44;101194.59;13055871;22;20256;-78
2023/06/18 03:01:56;;;;;;;;;;;;;;;17.53;89.46;101184.47;13057007;22;19982;-78
2023/06/18 03:07:01;;;;;;;;;;;;;;;17.46;90.76;101184.13;13056003;22;20419;-78
2023/06/18 03:12:04;;;;;;;;;;;;;;;17.48;88.24;101179.53;13029905;22;19957;-78
2023/06/18 03:17:06;;;;;;;;;;;;;;;17.41;91.22;101181.84;13056677;22;19954;-79
2023/06/18 03:22:09;;;;;;;;;;;;;;;17.31;91.85;101180.88;13055619;22;20336;-79
2023/06/18 03:27:11;;;;;;;;;;;;;;;17.38;91.67;101179.47;13055565;22;20413;-78
2023/06/18 03:32:14;;;;;;;;;;;;;;;17.25;92.12;101189.34;13056331;22;19949;-78
2023/06/18 03:37:17;;;;;;;;;;;;;;;17.22;92.37;101182.47;13055873;22;19990;-79
2023/06/18 03:42:19;;;;;;;;;;;;;;;17.42;91.50;101177.41;13055357;22;19919;-78
2023/06/18 03:47:22;;;;;;;;;;;;;;;17.30;92.82;101186.31;13028375;22;20025;-79
2023/06/18 03:52:24;;;;;;;;;;;;;;;17.33;92.96;101186.06;13028307;22;19998;-79
2023/06/18 03:57:26;;;;;;;;;;;;;;;17.30;93.29;101183.66;13055704;22;19938;-78
2023/06/18 04:02:28;;;;;;;;;;;;;;;17.42;92.27;101188.00;13055690;22;19943;-79
2023/06/18 04:07:31;;;;;;;;;;;;;;;17.45;92.01;101187.75;13054330;22;19950;-79
2023/06/18 04:12:33;;;;;;;;;;;;;;;17.55;91.94;101201.06;13056862;22;19949;-78
2023/06/18 04:17:40;;;;;;;;;;;;;;;17.70;91.79;101199.84;13054556;22;20394;-79
2023/06/18 04:22:42;;;;;;;;;;;;;;;17.79;92.38;101212.31;13028469;22;19918;-79
2023/06/18 04:27:45;;;;;;;;;;;;;;;18.10;90.12;101204.53;13026530;22;20295;-79
2023/06/18 04:32:47;;;;;;;;;;;;;;;18.07;89.98;101207.47;13053848;22;20309;-79
2023/06/18 04:37:49;;;;;;;;;;;;;;;18.39;88.21;101206.56;13027971;22;19925;-79
2023/06/18 04:42:52;;;;;;;;;;;;;;;18.34;88.83;101209.63;13027376;22;19982;-79
2023/06/18 04:47:54;;;;;;;;;;;;;;;18.51;89.72;101217.97;13026790;22;20279;-79
2023/06/18 04:52:57;;;;;;;;;;;;;;;18.66;86.98;101203.41;13054479;22;19925;-79
2023/06/18 04:57:59;;;;;;;;;;;;;;;18.72;88.29;101209.97;13053019;22;20329;-79
2023/06/18 05:03:03;;;;;;;;;;;;;;;18.56;89.00;101200.69;13053246;22;19957;-79
2023/06/18 05:08:05;;;;;;;;;;;;;;;18.68;89.21;101204.09;13027307;22;19919;-79
2023/06/18 05:13:07;;;;;;;;;;;;;;;18.80;89.04;101201.38;12999971;22;20010;-80
2023/06/18 05:18:10;;;;;;;;;;;;;;;18.86;86.52;101196.41;13026980;22;19958;-80
2023/06/18 05:23:12;;;;;;;;;;;;;;;19.06;85.84;101201.78;13052784;22;19919;-80
2023/06/18 05:28:14;;;;;;;;;;;;;;;19.20;85.81;101203.22;13053077;22;19965;-80
2023/06/18 05:33:17;;;;;;;;;;;;;;;19.09;87.59;101199.72;13052147;22;19947;-79
2023/06/18 05:38:19;;;;;;;;;;;;;;;19.24;83.75;101208.16;13026761;22;19919;-79
2023/06/18 05:43:21;;;;;;;;;;;;;;;19.54;81.77;101205.59;13052910;22;19949;-80
2023/06/18 05:48:24;;;;;;;;;;;;;;;19.37;80.73;101204.44;13053072;22;19998;-79
2023/06/18 05:53:26;;;;;;;;;;;;;;;19.42;81.28;101211.00;13026504;22;19986;-80
2023/06/18 05:58:28;;;;;;;;;;;;;;;19.53;81.42;101217.19;13025748;22;19919;-80
2023/06/18 06:03:31;;;;;;;;;;;;;;;19.73;81.07;101210.91;13052151;22;19959;-80
2023/06/18 06:08:33;;;;;;;;;;;;;;;20.31;79.15;101212.78;13052088;22;20332;-81
2023/06/18 06:13:35;;;;;;;;;;;;;;;20.37;77.19;101220.19;13029075;22;19919;-80
2023/06/18 06:18:37;;;;;;;;;;;;;;;20.26;76.97;101220.34;13057664;22;19986;-80
2023/06/18 06:23:40;;;;;;;;;;;;;;;20.56;76.52;101213.16;13003954;22;20344;-80
2023/06/18 06:28:42;;;;;;;;;;;;;;;20.74;74.31;101216.78;13056272;22;19990;-80
2023/06/18 06:33:44;;;;;;;;;;;;;;;20.85;72.61;101222.94;13056803;22;19989;-81
2023/06/18 06:38:46;;;;;;;;;;;;;;;21.35;71.03;101219.94;13057232;22;19919;-80
2023/06/18 06:43:49;;;;;;;;;;;;;;;21.37;70.92;101212.63;13028617;22;19919;-80
2023/06/18 06:48:51;;;;;;;;;;;;;;;21.81;68.85;101215.44;13056513;22;19925;-80
2023/06/18 06:53:53;;;;;;;;;;;;;;;21.73;68.30;101214.53;13056245;22;20396;-81
2023/06/18 06:58:56;;;;;;;;;;;;;;;21.69;67.01;101214.84;13056914;22;19919;-80
2023/06/18 07:03:58;;;;;;;;;;;;;;;22.18;67.36;101217.13;13055778;22;20284;-81
2023/06/18 07:09:02;;;;;;;;;;;;;;;22.40;65.15;101212.31;13055826;22;19925;-81
2023/06/18 07:14:04;;;;;;;;;;;;;;;22.89;64.60;101214.47;13056708;22;19922;-80
2023/06/18 07:19:07;;;;;;;;;;;;;;;23.18;61.24;101206.97;13055796;22;19919;-80
2023/06/18 07:24:09;;;;;;;;;;;;;;;23.24;62.19;101215.34;13055394;22;19918;-80
2023/06/18 07:29:11;;;;;;;;;;;;;;;23.79;61.12;101214.81;13055156;22;20332;-81
2023/06/18 07:34:16;;;;;;;;;;;;;;;23.74;59.84;101211.81;13029233;22;19986;-80
2023/06/18 07:44:23;;;;;;;;;;;;;;;23.62;57.09;101224.63;12803036;23;20024;-62
2023/06/18 07:49:25;;;;;;;;;;;;;;;24.03;57.38;101219.38;12802997;23;19987;-62
2023/06/18 07:54:28;;;;;;;;;;;;;;;23.99;56.11;101215.38;12803098;23;19920;-62
2023/06/18 07:59:30;;;;;;;;;;;;;;;24.08;58.55;101237.59;12803196;23;19991;-62
2023/06/18 08:04:32;;;;;;;;;;;;;;;23.98;55.05;101250.31;12801685;23;20218;-61
2023/06/18 08:09:34;;;;;;;;;;;;;;;23.65;59.48;101243.00;12801613;23;19975;-62
2023/06/18 08:14:37;;;;;;;;;;;;;;;23.85;59.84;101227.53;12802369;23;19920;-62
2023/06/18 08:19:39;;;;;;;;;;;;;;;23.99;58.35;101228.75;12801606;23;20003;-61
2023/06/18 08:24:41;;;;;;;;;;;;;;;24.53;58.30;101230.03;12802227;23;19999;-61
2023/06/18 08:29:44;;;;;;;;;;;;;;;24.96;56.39;101231.50;12802545;23;19975;-62
2023/06/18 08:34:46;;;;;;;;;;;;;;;25.27;56.47;101225.41;12801875;23;19988;-62
2023/06/18 08:39:49;;;;;;;;;;;;;;;25.04;51.12;101220.75;12775254;23;19920;-62
2023/06/18 08:44:53;;;;;;;;;;;;;;;25.66;50.14;101218.31;12802010;23;19955;-62
2023/06/18 08:49:56;;;;;;;;;;;;;;;25.94;49.45;101205.19;12801499;23;19998;-62
2023/06/18 08:55:01;;;;;;;;;;;;;;;26.60;44.89;101196.59;12802001;23;19948;-62
2023/06/18 09:00:04;;;;;;;;;;;;;;;27.56;44.01;101207.38;12801142;23;19999;-63
2023/06/18 09:05:07;;;;;;;;;;;;;;;27.56;42.93;101210.91;12800959;23;19943;-62
2023/06/18 09:10:10;;;;;;;;;;;;;;;28.45;41.72;101201.59;12775259;23;20254;-62
2023/06/18 09:15:12;;;;;;;;;;;;;;;28.04;39.68;101207.69;12774741;23;19920;-62
2023/06/18 09:20:15;;;;;;;;;;;;;;;28.19;39.83;101194.13;12801629;23;19984;-62
2023/06/18 09:25:18;;;;;;;;;;;;;;;29.11;38.07;101194.91;12775405;23;19956;-62
2023/06/18 09:30:23;;;;;;;;;;;;;;;28.51;38.72;101186.47;12800591;23;20405;-62
2023/06/18 09:35:26;;;;;;;;;;;;;;;28.82;40.89;101194.16;12800626;23;20396;-62
2023/06/18 09:40:28;;;;;;;;;;;;;;;28.33;41.75;101195.91;12800341;23;19991;-62
2023/06/18 09:45:31;;;;;;;;;;;;;;;28.00;42.07;101182.19;12799906;23;19963;-62
2023/06/18 09:50:33;;;;;;;;;;;;;;;27.69;41.66;101186.00;12775152;23;19992;-62
2023/06/18 09:55:35;;;;;;;;;;;;;;;27.60;41.86;101184.47;12801116;23;19996;-62
2023/06/18 10:00:37;;;;;;;;;;;;;;;27.72;43.25;101195.53;12801014;23;19927;-62
2023/06/18 10:05:40;;;;;;;;;;;;;;;27.28;43.90;101183.88;12800078;23;20465;-62
2023/06/18 10:10:42;;;;;;;;;;;;;;;27.13;44.19;101183.06;12799913;23;19971;-62
2023/06/18 10:15:44;;;;;;;;;;;;;;;26.79;44.35;101182.63;12773778;23;20421;-62
2023/06/18 10:20:46;;;;;;;;;;;;;;;27.25;44.01;101182.41;12800762;23;19920;-62
2023/06/18 10:25:49;;;;;;;;;;;;;;;26.56;47.16;101188.06;12773544;23;19970;-62
2023/06/18 10:30:51;;;;;;;;;;;;;;;26.73;47.29;101179.88;12799791;23;20361;-62
2023/06/18 10:35:53;;;;;;;;;;;;;;;26.66;47.08;101175.25;12774471;23;19979;-62
2023/06/18 10:41:06;;;;;;;;;;;;;;;25.95;48.24;101172.03;12799915;23;19954;-62
2023/06/18 10:46:12;;;;;;;;;;;;;;;26.14;52.04;101165.31;12773418;23;20352;-63
2023/06/18 10:51:14;;;;;;;;;;;;;;;26.29;49.28;101173.41;12800396;23;19920;-63
2023/06/18 10:56:17;;;;;;;;;;;;;;;26.20;48.35;101177.19;12801446;23;19959;-62
2023/06/18 11:01:22;;;;;;;;;;;;;;;26.95;45.78;101173.56;12803493;23;20363;-65
2023/06/18 11:06:28;;;;;;;;;;;;;;;26.40;47.71;101182.88;12801626;23;19975;-62
2023/06/18 11:11:30;;;;;;;;;;;;;;;26.67;46.56;101178.75;12803020;23;19947;-62
2023/06/18 11:16:32;;;;;;;;;;;;;;;26.61;48.39;101174.94;12803901;23;19988;-62
2023/06/18 11:21:35;;;;;;;;;;;;;;;26.66;47.59;101161.81;12803813;23;19920;-62
2023/06/18 11:26:37;;;;;;;;;;;;;;;26.63;47.68;101151.44;12776646;23;19960;-62
2023/06/18 11:31:39;;;;;;;;;;;;;;;26.08;54.30;101149.97;12776679;23;20316;-62
2023/06/18 11:36:42;;;;;;;;;;;;;;;26.07;56.52;101150.97;12776818;23;19986;-62
2023/06/18 11:41:44;;;;;;;;;;;;;;;26.24;58.08;101151.66;12802593;23;19928;-62
2023/06/18 11:46:46;;;;;;;;;;;;;;;27.10;55.96;101143.13;12802328;23;20389;-62
2023/06/18 11:51:48;;;;;;;;;;;;;;;27.44;48.86;101142.53;12803180;23;19983;-62
2023/06/18 11:56:53;;;;;;;;;;;;;;;27.30;50.09;101129.97;12776470;23;20369;-62
2023/06/18 12:01:56;;;;;;;;;;;;;;;27.01;50.50;101120.94;12776987;23;19944;-62
2023/06/18 12:06:58;;;;;;;;;;;;;;;26.87;50.92;101115.38;12802517;23;19928;-62
2023/06/18 12:12:09;;;;;;;;;;;;;;;26.76;50.56;101113.19;12776704;23;19995;-62
2023/06/18 12:17:15;;;;;;;;;;;;;;;26.94;51.23;101114.66;12801975;23;20011;-64
2023/06/18 12:22:17;;;;;;;;;;;;;;;27.47;51.10;101107.19;12776141;23;19927;-66
2023/06/18 12:27:20;;;;;;;;;;;;;;;27.55;51.24;101093.59;12802575;23;19920;-67
2023/06/18 12:32:22;;;;;;;;;;;;;;;27.45;51.29;101090.41;12802525;23;19996;-66
2023/06/18 12:37:31;;;;;;;;;;;;;;;27.45;50.47;101092.25;12802368;23;20249;-65
2023/06/18 12:42:33;;;;;;;;;;;;;;;27.42;48.61;101080.88;12801556;23;20272;-66
2023/06/18 12:47:39;;;;;;;;;;;;;;;27.61;48.62;101087.44;12802164;23;19950;-65
2023/06/18 12:52:43;;;;;;;;;;;;;;;27.17;48.86;101082.25;12802202;23;19928;-66
2023/06/18 12:57:45;;;;;;;;;;;;;;;26.93;50.22;101080.75;12775934;23;19944;-65
2023/06/18 13:02:49;;;;;;;;;;;;;;;26.76;50.97;101080.94;12801923;23;19920;-65
2023/06/18 13:07:52;;;;;;;;;;;;;;;26.76;51.86;101074.75;12801095;23;20010;-66
2023/06/18 13:12:54;;;;;;;;;;;;;;;26.81;53.94;101075.03;12801802;23;19927;-65
2023/06/18 13:17:57;;;;;;;;;;;;;;;27.05;53.92;101052.38;12801775;23;19987;-66
2023/06/18 13:22:59;;;;;;;;;;;;;;;26.89;55.74;101053.41;12800290;23;19999;-66
2023/06/18 13:28:01;;;;;;;;;;;;;;;26.99;56.05;101045.88;12801502;23;19921;-65
2023/06/18 13:33:06;;;;;;;;;;;;;;;26.49;52.68;101029.59;12801568;23;19920;-65
2023/06/18 13:38:09;;;;;;;;;;;;;;;26.51;53.00;101030.25;12800678;23;19920;-65
2023/06/18 13:43:11;;;;;;;;;;;;;;;26.58;53.41;101034.84;12800519;23;19924;-65
2023/06/18 13:48:15;;;;;;;;;;;;;;;26.82;51.77;101025.66;12800430;23;20219;-65
2023/06/18 13:53:17;;;;;;;;;;;;;;;26.64;52.88;101024.22;12800382;23;20326;-65
2023/06/18 13:58:20;;;;;;;;;;;;;;;26.59;53.62;101023.91;12799676;23;19987;-65
2023/06/18 14:03:22;;;;;;;;;;;;;;;25.99;52.82;101022.28;12800628;23;19931;-65
2023/06/18 14:08:24;;;;;;;;;;;;;;;26.26;54.87;101029.72;12800169;23;20226;-65
2023/06/18 14:13:27;;;;;;;;;;;;;;;25.97;57.06;101037.75;12800191;23;20246;-65
2023/06/18 14:18:29;;;;;;;;;;;;;;;26.08;57.32;101030.06;12799641;23;19943;-65
2023/06/18 14:23:31;;;;;;;;;;;;;;;25.65;63.08;101026.28;12800946;23;19991;-66
2023/06/18 14:28:33;;;;;;;;;;;;;;;25.54;64.99;101024.88;12800008;23;19927;-65
2023/06/18 14:33:36;;;;;;;;;;;;;;;25.68;68.07;101028.59;12802518;23;19990;-66
2023/06/18 14:38:38;;;;;;;;;;;;;;;25.63;70.41;101025.63;12803731;23;20334;-65
2023/06/18 14:43:40;;;;;;;;;;;;;;;25.46;71.68;101027.63;12803847;23;19927;-66
2023/06/18 14:48:43;;;;;;;;;;;;;;;25.02;74.86;101027.25;12803314;23;20312;-65
2023/06/18 14:53:50;;;;;;;;;;;;;;;24.79;76.08;101029.88;12804569;23;19920;-65
2023/06/18 14:58:52;;;;;;;;;;;;;;;25.02;75.50;101013.03;12754419;23;20377;-65
2023/06/18 15:03:55;;;;;;;;;;;;;;;25.17;75.26;101021.13;12803242;23;19962;-65
2023/06/18 15:08:57;;;;;;;;;;;;;;;25.36;72.50;101009.94;12802911;23;19924;-66
2023/06/18 15:13:59;;;;;;;;;;;;;;;25.02;73.22;101011.19;12777726;23;19920;-66
2023/06/18 15:19:02;;;;;;;;;;;;;;;25.44;71.05;101003.69;12804131;23;19991;-66
2023/06/18 15:24:04;;;;;;;;;;;;;;;25.14;69.29;100992.00;12803144;23;19921;-65
2023/06/18 15:29:07;;;;;;;;;;;;;;;25.09;64.53;100992.53;12777868;23;19920;-65
2023/06/18 15:34:09;;;;;;;;;;;;;;;25.09;62.41;100997.91;12803271;23;19920;-65
2023/06/18 15:39:12;;;;;;;;;;;;;;;25.20;63.67;100996.63;12803340;23;19928;-66
2023/06/18 15:44:14;;;;;;;;;;;;;;;25.13;63.07;100990.34;12802050;23;20293;-61
2023/06/18 15:49:17;;;;;;;;;;;;;;;24.93;60.74;100995.34;12803483;23;20000;-62
2023/06/18 15:54:19;;;;;;;;;;;;;;;25.08;57.60;101001.59;12802947;23;19944;-61
2023/06/18 15:59:21;;;;;;;;;;;;;;;24.15;64.88;100999.72;12802073;23;19987;-61
2023/06/18 16:04:24;;;;;;;;;;;;;;;24.16;66.45;100996.03;12802425;23;20390;-61
2023/06/18 16:09:26;;;;;;;;;;;;;;;24.00;68.13;100979.03;12802368;23;19921;-61
2023/06/18 16:14:29;;;;;;;;;;;;;;;24.14;63.21;100968.63;12801818;23;19920;-61
2023/06/18 16:19:31;;;;;;;;;;;;;;;24.32;66.33;100976.41;12802537;23;19947;-61
2023/06/18 16:24:33;;;;;;;;;;;;;;;24.34;64.14;100967.19;12801843;23;19927;-61
2023/06/18 16:29:35;;;;;;;;;;;;;;;24.33;65.12;100954.84;12802556;23;19920;-61
2023/06/18 16:34:38;;;;;;;;;;;;;;;24.34;65.41;100948.47;12802062;23;19921;-61
2023/06/18 16:39:40;;;;;;;;;;;;;;;24.41;63.26;100940.56;12801600;23;20289;-62
2023/06/18 16:44:42;;;;;;;;;;;;;;;24.13;68.83;100940.22;12801554;23;19991;-61
2023/06/18 16:49:45;;;;;;;;;;;;;;;24.03;69.13;100937.75;12801834;23;20004;-61
2023/06/18 16:54:47;;;;;;;;;;;;;;;23.73;67.54;100937.47;12801231;23;20346;-61
2023/06/18 16:59:49;;;;;;;;;;;;;;;24.16;65.36;100939.84;12801351;23;20301;-61
2023/06/18 17:04:52;;;;;;;;;;;;;;;24.21;69.94;100940.16;12801553;23;19943;-61
2023/06/18 17:09:54;;;;;;;;;;;;;;;24.20;66.42;100933.97;12800622;23;20282;-61
2023/06/18 17:14:56;;;;;;;;;;;;;;;24.47;65.77;100919.28;12800659;23;20334;-61
2023/06/18 17:19:58;;;;;;;;;;;;;;;24.47;68.02;100921.97;12801705;23;19920;-61
2023/06/18 17:25:01;;;;;;;;;;;;;;;24.41;65.07;100911.13;12801201;23;19947;-61
2023/06/18 17:30:03;;;;;;;;;;;;;;;24.36;68.81;100905.47;12800940;23;20004;-62
2023/06/18 17:35:05;;;;;;;;;;;;;;;24.21;71.12;100903.56;12801352;23;19927;-63
2023/06/18 17:40:08;;;;;;;;;;;;;;;23.94;69.27;100902.19;12800101;23;19944;-62
2023/06/18 17:45:10;;;;;;;;;;;;;;;23.96;70.69;100894.81;12773514;23;20305;-61
2023/06/18 17:50:12;;;;;;;;;;;;;;;24.05;65.77;100900.97;12801221;23;19998;-61
2023/06/18 17:55:15;;;;;;;;;;;;;;;23.52;66.96;100879.25;12801324;23;19926;-61
2023/06/18 18:00:17;;;;;;;;;;;;;;;23.47;66.59;100870.88;12799862;23;20003;-61
2023/06/18 18:05:19;;;;;;;;;;;;;;;23.64;68.81;100885.06;12799813;23;19974;-61
2023/06/18 18:10:22;;;;;;;;;;;;;;;23.56;70.27;100876.03;12800954;23;19931;-61
2023/06/18 18:15:24;;;;;;;;;;;;;;;23.59;69.70;100885.56;12799865;23;20400;-61
2023/06/18 18:20:26;;;;;;;;;;;;;;;23.59;68.11;100872.19;12801011;23;19928;-61
2023/06/18 18:25:29;;;;;;;;;;;;;;;23.44;67.65;100868.56;12800952;23;19944;-61
2023/06/18 18:30:31;;;;;;;;;;;;;;;23.30;68.64;100862.91;12774185;23;20003;-61
2023/06/18 18:35:33;;;;;;;;;;;;;;;23.19;67.31;100852.59;12799699;23;20003;-61
2023/06/18 18:40:35;;;;;;;;;;;;;;;23.16;68.45;100843.06;12800133;23;19996;-61
2023/06/18 18:45:38;;;;;;;;;;;;;;;23.12;67.83;100849.75;12800637;23;19944;-61
2023/06/18 18:50:40;;;;;;;;;;;;;;;22.91;69.83;100839.56;12800187;23;19921;-61
2023/06/18 18:55:42;;;;;;;;;;;;;;;22.93;66.89;100834.91;12800729;23;19992;-61
2023/06/18 19:00:45;;;;;;;;;;;;;;;22.86;68.74;100838.41;12800284;23;19928;-61
2023/06/18 19:05:50;;;;;;;;;;;;;;;22.83;70.21;100839.59;12798425;23;20404;-61
2023/06/18 19:10:52;;;;;;;;;;;;;;;22.62;70.36;100840.06;12799905;23;19924;-61
2023/06/18 19:15:56;;;;;;;;;;;;;;;22.54;69.30;100832.06;12799268;23;20401;-61
2023/06/18 19:20:58;;;;;;;;;;;;;;;22.45;71.48;100848.03;12803991;23;19920;-62
2023/06/18 19:26:01;;;;;;;;;;;;;;;22.42;71.57;100848.38;12803180;23;19920;-61
2023/06/18 19:31:03;;;;;;;;;;;;;;;22.47;70.10;100852.41;12803417;23;19921;-61
2023/06/18 19:36:05;;;;;;;;;;;;;;;22.25;68.73;100863.47;12802537;23;20490;-61
2023/06/18 19:41:07;;;;;;;;;;;;;;;22.12;68.55;100873.78;12803158;23;19948;-61
2023/06/18 19:46:10;;;;;;;;;;;;;;;22.16;67.41;100880.47;12802193;23;19956;-61
2023/06/18 19:51:12;;;;;;;;;;;;;;;22.01;67.97;100882.91;12801212;23;19924;-61
2023/06/18 19:56:18;;;;;;;;;;;;;;;21.93;68.67;100876.72;12824794;22;19920;-65
2023/06/18 20:01:20;;;;;;;;;;;;;;;21.97;70.53;100876.25;12865111;23;19927;-65
2023/06/18 20:06:22;;;;;;;;;;;;;;;21.84;68.45;100862.53;12865104;23;19938;-65
2023/06/18 20:11:25;;;;;;;;;;;;;;;21.89;68.97;100858.38;12865040;23;19920;-65
2023/06/18 20:16:27;;;;;;;;;;;;;;;21.91;70.22;100860.06;12865280;23;19946;-65
2023/06/18 20:21:30;;;;;;;;;;;;;;;21.82;72.47;100859.16;12864049;23;19920;-65
2023/06/18 20:26:32;;;;;;;;;;;;;;;21.78;71.03;100857.84;12862324;23;20002;-65
2023/06/18 20:31:34;;;;;;;;;;;;;;;21.71;70.31;100841.66;12862795;23;19920;-65
2023/06/18 20:36:36;;;;;;;;;;;;;;;21.65;70.55;100840.47;12863613;23;19983;-65
2023/06/18 20:41:39;;;;;;;;;;;;;;;21.59;73.16;100830.44;12855835;23;20028;-65
2023/06/18 20:46:41;;;;;;;;;;;;;;;21.55;72.15;100830.91;12854566;23;19924;-65
2023/06/18 20:51:43;;;;;;;;;;;;;;;21.57;73.50;100826.25;12864473;23;19969;-65
2023/06/18 20:56:45;;;;;;;;;;;;;;;21.56;72.45;100821.94;12863223;23;19926;-66
2023/06/18 21:01:50;;;;;;;;;;;;;;;21.50;74.50;100818.06;12836615;23;19926;-66
2023/06/18 21:06:52;;;;;;;;;;;;;;;21.57;74.14;100810.25;12861805;23;19947;-66
2023/06/18 21:11:54;;;;;;;;;;;;;;;21.59;72.57;100803.78;12864040;23;19920;-65
2023/06/18 21:16:59;;;;;;;;;;;;;;;21.59;72.17;100810.97;12864010;23;19920;-66
2023/06/18 21:22:02;;;;;;;;;;;;;;;21.50;72.33;100804.75;12862747;23;20333;-65
2023/06/18 21:27:04;;;;;;;;;;;;;;;21.43;70.08;100796.53;12862072;23;19920;-66
2023/06/18 21:32:06;;;;;;;;;;;;;;;21.47;70.78;100795.25;12862709;23;19998;-65
2023/06/18 21:37:08;;;;;;;;;;;;;;;21.51;68.77;100793.94;12862923;23;19923;-65
2023/06/18 21:42:11;;;;;;;;;;;;;;;21.39;69.89;100794.34;12863227;23;19983;-65
2023/06/18 21:47:13;;;;;;;;;;;;;;;21.41;69.67;100782.53;12863281;23;19987;-65
2023/06/18 21:52:15;;;;;;;;;;;;;;;21.11;71.09;100783.88;12862704;23;20396;-65
2023/06/18 21:57:17;;;;;;;;;;;;;;;21.13;69.69;100773.91;12861768;23;19920;-65
2023/06/18 22:02:20;;;;;;;;;;;;;;;21.06;70.66;100776.34;12862848;23;19920;-65
2023/06/18 22:07:22;;;;;;;;;;;;;;;21.10;69.59;100766.25;12863244;23;19926;-65
2023/06/18 22:12:25;;;;;;;;;;;;;;;21.11;67.94;100757.25;12863256;23;19988;-66
2023/06/18 22:17:27;;;;;;;;;;;;;;;20.96;70.50;100747.22;12862355;23;20393;-65
2023/06/18 22:22:30;;;;;;;;;;;;;;;20.86;70.74;100757.09;12862355;23;20019;-65
2023/06/18 22:27:32;;;;;;;;;;;;;;;20.88;70.18;100740.97;12862206;23;20317;-65
2023/06/18 22:32:34;;;;;;;;;;;;;;;20.84;69.31;100735.13;12862275;23;20010;-65
2023/06/18 22:37:37;;;;;;;;;;;;;;;20.87;69.25;100723.34;12862897;23;19920;-65
2023/06/18 22:42:39;;;;;;;;;;;;;;;20.55;71.80;100696.34;12862849;23;19927;-65
2023/06/18 22:47:42;;;;;;;;;;;;;;;20.53;70.34;100676.22;12862814;23;20325;-65
2023/06/18 22:52:44;;;;;;;;;;;;;;;20.66;69.76;100689.97;12864225;23;19943;-66
2023/06/18 22:57:46;;;;;;;;;;;;;;;20.52;67.80;100715.25;12865804;23;20368;-66
2023/06/18 23:02:49;;;;;;;;;;;;;;;20.45;69.68;100714.22;12865868;23;20230;-65
2023/06/18 23:07:51;;;;;;;;;;;;;;;20.41;71.10;100703.06;12865740;23;19990;-66
2023/06/18 23:12:54;;;;;;;;;;;;;;;20.72;67.97;100701.81;12866511;23;19924;-66
2023/06/18 23:17:56;;;;;;;;;;;;;;;20.79;68.13;100702.84;12865582;23;20006;-66
2023/06/18 23:22:59;;;;;;;;;;;;;;;20.78;69.00;100706.50;12866307;23;19920;-65
2023/06/18 23:28:01;;;;;;;;;;;;;;;20.73;69.74;100706.16;12866797;23;19920;-65
2023/06/18 23:33:04;;;;;;;;;;;;;;;20.50;71.36;100700.47;12866078;23;19951;-65
2023/06/18 23:38:11;;;;;;;;;;;;;;;20.52;70.95;100693.16;12865220;23;19920;-65
2023/06/18 23:43:13;;;;;;;;;;;;;;;20.56;70.41;100697.16;12865194;23;20333;-65
2023/06/18 23:48:15;;;;;;;;;;;;;;;20.77;70.49;100705.66;12864984;23;19919;-66
2023/06/18 23:53:17;;;;;;;;;;;;;;;20.89;70.89;100700.09;12864957;23;19987;-65
2023/06/18 23:58:19;;;;;;;;;;;;;;;20.87;70.68;100689.59;12864663;23;19920;-66
